Date,TemperatureHighF,TemperatureAvgF,TemperatureLowF,DewpointHighF,DewpointAvgF,DewpointLowF,HumidityHigh,HumidityAvg,HumidityLow,PressureMaxIn,PressureMinIn,WindSpeedMaxMPH,WindSpeedAvgMPH,GustSpeedMaxMPH,PrecipitationSumIn
2013-1-1,47,43,38,42,36,30,99,77,53,30.23,30.17,21,11,26,0.00
2013-1-2,49,41,40,37,23,-100,82,59,54,30.20,30.10,20,-62,28,0.00
2013-1-3,47,38,39,40,16,-100,88,63,51,30.23,30.12,21,-131,22,0.00
2013-1-4,51,39,41,38,16,-100,81,59,54,30.24,30.15,19,-139,22,0.00
2013-1-5,48,39,43,46,21,-100,100,77,70,30.22,30.02,11,-152,15,0.36
2013-1-6,48,44,41,45,42,41,100,93,79,30.16,30.01,15,7,21,0.18
2013-1-7,55,48,43,49,45,39,95,86,78,30.23,30.13,10,3,11,0.00
2013-1-8,56,49,43,49,44,42,97,85,70,30.20,30.10,16,9,20,0.00
2013-1-9,48,47,47,43,43,43,87,84,82,30.11,30.10,15,13,17,0.00
2013-1-17,53,51,48,34,32,30,57,48,44,30.13,30.12,24,18,25,0.00
2013-1-18,55,46,45,37,20,-100,72,47,35,30.18,30.10,27,-83,31,0.00
2013-1-19,55,45,48,37,12,-100,55,37,31,30.19,30.11,24,-128,25,0.00
2013-1-20,56,47,49,34,14,-100,51,35,33,30.18,30.09,20,-103,25,0.00
2013-1-21,55,44,44,39,17,-100,69,49,47,30.13,30.04,26,-121,31,0.01
2013-1-22,60,47,46,42,24,-100,72,53,33,30.07,29.97,24,-85,27,0.00
2013-1-23,58,43,46,49,17,-100,99,59,31,30.04,29.91,16,-166,18,0.19
2013-1-24,52,50,46,51,49,46,100,98,92,30.16,30.01,17,11,21,0.00
2013-1-25,61,54,50,55,52,50,100,92,81,30.16,30.01,16,7,18,0.00
2013-1-26,56,49,44,51,44,36,100,85,54,30.04,29.94,25,11,31,0.00
2013-1-27,53,45,41,40,36,33,83,70,57,30.14,30.02,14,6,24,0.00
2013-1-28,53,42,42,42,22,-100,86,64,63,30.25,30.12,11,-112,18,0.00
2013-1-29,57,44,43,47,25,-100,84,64,63,30.32,30.24,12,-114,14,0.00
2013-1-30,60,48,49,49,27,-100,82,59,55,30.30,30.23,13,-110,14,0.00
2013-1-31,56,46,45,46,28,-100,89,67,66,30.24,30.14,20,-104,23,0.00
2013-2-1,59,47,45,47,28,-100,98,65,59,30.18,30.09,22,-104,23,0.00
2013-2-2,57,48,45,51,47,45,100,96,81,30.26,30.18,18,6,19,0.00
2013-2-3,53,48,43,48,44,40,99,86,75,30.22,30.11,14,4,16,0.00
2013-2-4,50,45,42,50,45,42,100,100,86,30.14,30.04,16,5,17,0.01
2013-2-5,52,46,41,48,44,37,100,93,67,30.12,30.04,22,8,29,0.01
2013-2-6,55,47,44,47,43,39,98,87,74,30.16,30.09,20,8,24,0.00
2013-2-7,50,45,40,48,43,39,100,93,74,30.14,29.95,18,8,22,0.14
2013-2-8,50,44,38,43,37,25,99,80,42,29.98,29.90,17,8,25,0.08
2013-2-9,53,48,44,40,29,21,86,49,35,30.05,29.96,16,6,24,0.00
2013-2-10,54,44,41,43,27,-100,93,64,42,30.08,30.00,14,-79,15,0.00
2013-2-11,58,50,44,48,35,24,100,61,34,30.18,30.04,18,11,23,0.00
2013-2-12,55,47,42,47,43,36,100,85,55,30.32,30.18,16,6,17,0.01
2013-2-13,52,47,42,50,43,34,100,89,50,30.30,30.18,17,6,18,0.00
2013-2-14,64,55,44,46,44,42,100,70,51,30.21,30.14,13,7,16,0.00
2013-2-15,64,59,54,44,40,36,63,50,43,30.22,30.16,25,13,31,0.00
2013-2-16,63,56,51,50,44,39,76,64,46,30.19,30.00,28,11,30,0.00
2013-2-17,57,50,44,47,42,34,96,75,54,30.01,29.93,16,6,17,0.00
2013-2-18,49,44,41,42,40,37,100,87,75,29.99,29.91,24,14,28,0.00
2013-2-19,44,41,38,43,38,32,100,89,70,29.93,29.71,25,10,30,0.05
2013-2-20,56,46,37,43,36,29,82,67,49,30.03,29.82,12,4,16,0.00
2013-2-21,57,48,41,43,36,28,85,65,40,30.14,30.01,16,5,20,0.00
2013-2-22,55,48,44,46,42,37,94,78,64,30.22,30.14,19,7,25,0.00
2013-2-23,54,48,43,46,36,26,99,66,42,30.22,30.13,26,8,28,0.00
2013-2-24,56,49,44,44,31,21,99,52,30,30.21,30.14,20,11,26,0.00
2013-2-25,58,49,42,48,43,36,100,81,58,30.23,30.14,15,5,16,0.00
2013-2-26,60,52,42,45,33,24,86,52,27,30.18,30.11,23,9,27,0.00
2013-2-27,61,53,47,48,41,28,84,64,34,30.32,30.17,18,5,19,0.00
2013-2-28,60,53,46,53,49,44,98,85,74,30.41,30.33,17,4,18,0.00
2013-3-1,66,58,50,53,50,47,98,75,54,30.39,30.21,14,6,16,0.00
2013-3-2,63,54,47,53,49,46,100,82,65,30.20,30.03,21,11,26,0.00
2013-3-3,55,47,43,52,47,43,100,98,83,30.05,30.00,24,16,28,0.00
2013-3-4,49,44,40,48,43,39,100,96,85,30.12,30.02,23,10,30,0.00
2013-3-5,52,45,40,46,42,39,99,89,76,30.03,29.77,31,12,54,0.00
2013-3-6,52,47,43,48,45,43,100,93,80,30.03,29.78,34,10,54,0.00
2013-3-7,49,44,42,44,42,39,100,94,69,29.96,29.83,11,5,14,0.03
2013-3-8,55,48,43,47,41,34,91,77,59,30.01,29.81,24,9,32,0.00
2013-3-9,63,52,43,49,42,35,92,71,40,30.27,30.01,15,5,18,0.00
2013-3-10,60,53,46,49,43,35,97,72,47,30.31,30.21,18,8,19,0.00
2013-3-11,64,52,46,49,43,31,99,74,47,30.22,30.07,19,9,21,0.00
2013-3-12,65,53,44,55,50,44,100,88,65,30.12,30.05,12,4,14,0.01
2013-3-13,72,62,52,55,50,45,88,68,42,30.12,30.03,14,4,17,0.00
2013-3-14,65,56,49,54,48,39,99,76,44,30.12,30.04,22,4,26,0.00
2013-3-15,64,55,46,54,46,40,96,73,55,30.09,30.01,17,4,20,0.00
2013-3-16,66,54,44,53,46,38,100,78,41,30.07,29.99,20,7,23,0.00
2013-3-17,58,52,45,47,43,37,91,70,53,30.11,30.01,18,5,20,0.00
2013-3-18,54,48,45,48,44,37,98,85,61,30.09,30.01,27,8,32,0.00
2013-3-19,57,50,44,48,44,34,98,82,48,30.10,30.02,19,7,23,0.03
2013-3-20,52,49,47,51,48,40,100,95,68,30.11,30.03,23,9,24,0.05
2013-3-21,57,49,41,48,43,39,100,81,65,30.10,29.99,17,6,25,0.00
2013-3-22,61,54,45,44,35,21,74,51,23,30.09,30.00,16,7,19,0.00
2013-3-23,62,53,47,41,33,21,79,47,24,30.10,30.02,16,10,18,0.00
2013-3-24,58,49,44,49,45,40,99,86,64,30.05,29.94,21,9,23,0.00
2013-3-25,51,45,41,47,43,41,100,95,79,29.99,29.90,25,13,29,0.01
2013-3-26,52,47,42,49,45,41,98,92,82,29.98,29.91,21,13,26,0.00
2013-3-27,52,49,45,52,49,44,100,100,92,29.98,29.92,16,7,17,0.01
2013-3-28,56,51,50,56,51,50,100,98,90,30.06,29.97,18,10,19,0.04
2013-3-29,67,53,47,56,50,47,100,92,67,30.05,29.98,20,12,24,0.00
2013-3-30,58,51,48,57,50,48,100,98,82,30.04,29.94,21,14,30,0.00
2013-3-31,55,52,50,55,52,50,100,100,100,30.04,29.96,18,8,26,0.17
2013-4-1,57,52,49,56,51,46,100,96,81,30.12,30.01,18,8,21,0.38
2013-4-2,53,49,46,53,49,46,100,98,88,30.16,30.06,19,9,21,0.00
2013-4-3,65,49,45,58,48,45,100,97,67,30.11,29.95,26,9,30,0.01
2013-4-4,53,51,46,53,51,46,100,100,100,30.09,29.95,23,10,29,0.36
2013-4-5,55,51,49,55,51,49,100,100,99,30.16,30.08,20,10,25,0.04
2013-4-6,53,51,48,53,51,48,100,100,100,30.17,30.10,24,11,25,0.11
2013-4-7,55,50,46,55,50,46,100,98,88,30.13,29.79,28,13,48,0.01
2013-4-8,62,51,44,46,38,32,100,63,42,29.99,29.73,29,10,43,0.00
2013-4-9,70,61,53,43,37,31,48,41,31,30.07,29.99,19,8,29,0.00
2013-4-10,74,66,59,57,46,36,70,50,33,30.14,29.99,17,8,20,0.00
2013-4-11,67,56,48,53,47,42,88,72,51,30.01,29.80,19,6,24,0.00
2013-4-12,64,52,44,52,47,43,100,84,48,29.88,29.80,21,8,24,0.00
2013-4-13,64,54,47,52,46,40,91,73,59,29.87,29.79,13,4,13,0.00
2013-4-14,59,50,44,46,41,36,99,72,56,29.90,29.82,32,10,41,0.00
2013-4-15,53,46,42,45,40,34,100,80,56,29.92,29.82,31,10,41,0.01
2013-4-16,62,51,44,41,28,-100,65,47,36,30.13,29.93,20,-36,22,0.00
2013-4-17,64,57,50,43,32,28,52,38,31,30.24,30.13,20,8,28,0.00
2013-4-18,65,60,50,49,36,27,79,42,31,30.23,30.14,18,9,22,0.00
2013-4-19,72,57,46,51,46,37,98,69,38,30.19,30.04,22,9,24,0.00
2013-4-20,67,60,49,50,45,38,84,59,37,30.07,29.95,19,8,20,0.00
2013-4-21,76,64,49,54,44,33,81,52,25,30.01,29.90,18,8,21,0.00
2013-4-22,78,66,52,53,45,35,89,48,26,29.93,29.80,21,9,23,0.00
2013-4-23,70,56,44,49,39,26,100,62,21,29.91,29.82,28,17,34,0.00
2013-4-24,52,46,42,50,46,42,100,97,86,29.91,29.80,28,17,33,0.01
2013-4-25,55,50,47,51,48,46,100,94,84,30.09,29.91,25,13,29,0.00
2013-4-26,54,48,45,50,47,45,100,95,86,30.20,30.09,22,12,28,0.00
2013-4-27,52,47,43,51,47,43,100,99,93,30.20,30.05,24,13,26,0.00
2013-4-28,77,56,44,57,49,44,100,83,40,30.05,29.86,19,11,22,0.00
2013-4-29,76,67,60,57,52,48,75,60,43,29.87,29.72,15,6,17,0.00
2013-4-30,72,62,48,53,45,16,95,58,13,29.82,29.74,27,8,31,0.00
2013-5-1,75,62,50,51,35,16,88,44,13,30.05,29.81,22,10,29,0.00
2013-5-2,82,71,64,49,32,19,56,25,12,30.12,30.04,20,10,22,0.00
2013-5-3,77,68,55,53,37,18,88,38,12,30.04,29.75,20,8,23,0.00
2013-5-4,72,57,48,51,46,33,100,73,25,29.74,29.51,38,17,41,0.00
2013-5-5,58,53,48,52,50,48,100,89,81,29.78,29.56,24,11,34,0.00
2013-5-6,63,56,52,53,51,49,94,83,65,29.92,29.78,21,10,23,0.00
2013-5-7,61,54,50,56,53,50,100,94,82,30.01,29.92,20,13,23,0.00
2013-5-8,55,50,47,53,49,47,100,99,88,30.10,29.99,23,13,25,0.00
2013-5-9,56,50,46,52,48,46,100,96,83,30.14,30.07,28,13,32,0.00
2013-5-10,56,49,46,53,49,47,100,99,89,30.15,30.09,27,13,30,0.00
2013-5-11,59,50,46,59,50,46,100,99,89,30.12,30.03,24,13,27,0.00
2013-5-12,65,54,49,57,52,49,100,93,59,30.12,30.01,23,10,25,0.00
2013-5-13,70,55,47,60,52,47,100,89,66,30.06,29.92,19,11,21,0.00
2013-5-14,62,54,48,53,49,46,96,84,70,29.96,29.88,21,11,23,0.00
2013-5-15,62,53,46,53,48,44,96,84,69,30.01,29.94,18,8,19,0.00
2013-5-16,57,52,49,55,51,47,100,96,87,30.00,29.91,30,14,35,0.00
2013-5-17,57,51,46,52,48,45,100,90,74,30.04,29.94,31,15,34,0.00
2013-5-18,70,57,47,54,49,43,99,76,52,30.10,30.03,13,7,16,0.00
2013-5-19,72,63,54,53,48,40,79,60,32,30.08,29.95,20,7,24,0.00
2013-5-20,76,63,48,53,46,39,98,60,31,29.97,29.87,25,12,28,0.00
2013-5-21,62,55,47,51,45,35,98,69,52,29.96,29.86,24,10,34,0.00
2013-5-22,58,52,45,42,36,28,74,55,38,29.98,29.87,21,7,25,0.00
2013-5-23,61,53,43,46,42,38,84,67,50,29.97,29.88,25,7,28,0.00
2013-5-24,62,53,48,47,44,41,85,73,57,29.97,29.90,20,7,26,0.00
2013-5-25,58,52,47,49,46,43,98,82,67,30.01,29.92,29,8,29,0.00
2013-5-26,55,51,48,53,50,47,100,97,89,30.09,30.00,31,17,34,0.00
2013-5-27,53,51,48,53,51,48,100,100,99,30.09,29.96,24,12,29,0.06
2013-5-28,61,55,51,61,54,49,100,94,81,29.97,29.89,20,9,20,0.02
2013-5-29,67,55,50,58,51,40,100,87,50,29.93,29.88,21,11,24,0.00
2013-5-30,68,58,49,52,49,47,91,73,56,29.95,29.89,14,5,16,0.00
2013-5-31,77,62,50,55,49,45,87,64,40,29.98,29.89,19,7,21,0.00
2013-6-1,81,65,53,56,50,45,82,60,38,29.90,29.74,18,6,20,0.00
2013-6-2,61,53,48,54,49,47,100,86,61,29.74,29.63,30,17,33,0.00
2013-6-3,55,51,48,52,50,48,100,97,85,29.83,29.67,29,21,38,0.00
2013-6-4,54,51,49,54,50,49,100,99,93,29.93,29.82,28,16,33,0.00
2013-6-5,54,50,48,52,49,48,100,99,91,29.97,29.89,30,16,33,0.00
2013-6-6,53,50,47,53,50,47,100,99,94,29.92,29.83,29,16,32,0.00
2013-6-7,60,53,48,57,51,48,100,96,79,29.86,29.71,20,13,24,0.00
2013-6-8,58,52,49,52,51,49,100,98,79,29.76,29.69,42,24,46,0.01
2013-6-9,54,53,52,54,53,52,100,100,100,29.85,29.75,38,17,45,0.00
2013-6-10,58,53,50,58,52,50,100,99,93,29.93,29.76,25,11,34,0.00
2013-6-11,66,55,50,56,52,48,100,91,69,29.97,29.87,21,10,25,0.00
2013-6-12,71,58,49,55,50,46,97,74,57,29.95,29.87,18,7,22,0.00
2013-6-13,74,61,51,54,48,42,82,64,36,30.05,29.95,17,6,20,0.00
2013-6-14,65,58,48,53,50,47,100,75,60,29.95,29.79,25,12,27,0.00
2013-6-15,52,48,46,51,48,46,100,100,96,29.96,29.78,32,21,38,0.00
2013-6-16,68,56,48,56,50,47,100,84,57,30.05,29.96,21,9,22,0.00
2013-6-17,70,56,49,59,52,48,100,87,67,30.05,29.98,22,11,30,0.00
2013-6-18,58,53,49,54,50,46,100,91,76,29.99,29.93,28,17,34,0.01
2013-6-19,66,58,50,52,48,42,88,69,53,30.02,29.96,23,8,26,0.00
2013-6-20,71,60,53,53,48,45,84,66,46,29.98,29.90,19,7,23,0.00
2013-6-21,69,57,51,54,49,46,91,75,51,29.93,29.88,12,5,13,0.00
2013-6-22,73,60,49,54,50,46,95,71,48,29.90,29.81,22,8,25,0.00
2013-6-23,60,54,51,56,53,51,100,99,72,29.83,29.78,25,15,30,0.00
2013-6-24,54,53,51,55,53,51,100,100,100,29.87,29.76,17,9,20,0.05
2013-6-25,59,57,54,59,57,54,100,100,100,29.95,29.85,22,12,31,0.32
2013-6-26,68,61,57,67,60,57,100,96,81,30.03,29.94,21,11,24,0.06
2013-6-27,78,66,59,64,60,57,98,82,54,30.05,29.98,14,5,16,0.00
2013-6-28,83,67,56,63,57,48,98,74,30,29.99,29.86,22,9,24,0.00
2013-6-29,84,70,58,60,54,47,92,62,28,29.89,29.76,22,8,23,0.00
2013-6-30,69,60,55,59,55,53,95,84,58,29.81,29.73,24,11,25,0.00
2013-7-1,75,60,52,63,56,51,100,87,58,29.82,29.76,25,11,28,0.00
2013-7-2,62,55,52,59,55,52,100,97,86,29.88,29.78,42,23,42,0.00
2013-7-3,67,59,54,63,57,54,100,94,74,29.86,29.73,32,17,34,0.01
2013-7-4,79,62,55,62,55,46,100,80,32,29.75,29.65,27,16,31,0.00
2013-7-5,70,55,50,53,51,46,100,87,44,29.72,29.66,31,17,35,0.00
2013-7-6,54,50,49,53,50,49,100,100,94,29.78,29.70,32,19,34,0.00
2013-7-7,57,52,50,55,52,50,100,99,90,29.83,29.75,32,18,34,0.00
2013-7-8,55,52,50,54,52,50,100,100,96,29.94,29.82,28,17,32,0.00
2013-7-9,59,53,49,57,52,49,100,99,90,30.00,29.91,29,13,32,0.01
2013-7-10,57,52,50,57,51,50,100,99,94,29.95,29.87,33,20,33,0.00
2013-7-11,53,50,48,53,50,49,100,100,100,29.91,29.84,33,17,36,0.00
2013-7-12,54,50,49,54,50,49,100,100,100,29.92,29.85,28,18,32,0.00
2013-7-13,55,52,50,55,51,50,100,99,91,29.94,29.86,27,21,29,0.00
2013-7-14,53,50,49,53,51,49,100,100,100,29.97,29.87,29,21,32,0.00
2013-7-15,54,50,48,54,50,48,100,100,97,29.90,29.81,28,13,31,0.01
2013-7-16,55,53,50,55,53,50,100,100,100,30.00,29.84,18,8,20,0.02
2013-7-17,60,54,51,57,54,51,100,98,88,30.07,29.99,27,13,29,0.00
2013-7-18,55,51,50,55,51,50,100,100,100,30.03,29.91,29,18,32,0.00
2013-7-19,54,51,50,55,51,50,100,100,100,29.92,29.79,32,21,33,0.00
2013-7-20,52,50,49,53,50,49,100,100,100,29.82,29.71,33,22,36,0.00
2013-7-21,52,50,49,52,50,49,100,100,100,29.85,29.74,38,22,38,0.00
2013-7-22,57,54,50,57,54,50,100,100,100,29.93,29.84,27,16,33,0.00
2013-7-23,61,55,52,59,55,52,100,99,91,29.98,29.89,26,14,28,0.00
2013-7-24,60,54,51,58,54,51,100,99,91,29.96,29.88,27,18,28,0.00
2013-7-25,55,51,50,55,51,50,100,100,99,29.98,29.89,32,22,35,0.00
2013-7-26,57,52,50,57,52,50,100,98,96,30.07,29.97,32,19,35,0.00
2013-7-27,54,52,50,53,51,49,96,95,95,30.00,29.83,32,18,34,0.00
2013-7-28,52,51,50,51,49,48,95,94,93,29.85,29.78,31,21,37,0.00
2013-7-29,54,52,50,52,50,48,94,93,92,29.98,29.80,28,15,32,0.00
2013-7-30,53,52,49,52,50,48,95,94,91,30.08,29.98,29,16,34,0.00
2013-7-31,62,53,49,58,51,47,95,92,83,30.06,29.98,27,15,30,0.00
2013-8-1,62,56,50,57,53,48,94,89,74,30.02,29.93,26,10,30,0.00
2013-8-2,59,53,49,55,51,49,98,94,82,29.94,29.86,27,16,31,0.00
2013-8-3,53,51,49,51,48,45,95,91,87,29.95,29.88,27,19,30,0.00
2013-8-4,52,51,49,48,47,46,87,85,83,29.98,29.93,27,16,32,0.00
2013-8-5,56,51,49,53,46,42,90,82,77,30.00,29.90,27,15,32,0.01
2013-8-6,57,53,50,53,45,42,89,76,64,30.01,29.95,30,13,33,0.00
2013-8-7,56,55,52,42,40,39,64,59,55,30.08,30.01,13,7,18,0.03
2013-8-8,62,55,51,57,42,32,85,61,48,30.01,29.90,24,10,27,0.05
2013-8-9,59,54,50,54,35,28,83,51,39,29.96,29.88,29,15,30,0.00
2013-8-10,60,55,52,55,34,24,83,46,31,30.02,29.96,26,13,30,0.00
2013-8-11,57,53,51,34,23,19,44,31,26,29.99,29.91,27,17,28,0.00
2013-8-12,55,52,51,19,18,17,28,26,24,29.97,29.91,28,17,30,0.00
2013-8-13,68,56,52,57,35,14,83,50,17,29.97,29.88,24,13,28,0.00
2013-8-14,67,58,51,61,46,18,84,66,20,29.94,29.88,21,9,25,0.00
2013-8-15,66,61,56,62,39,8,84,49,13,29.93,29.88,22,10,26,0.00
2013-8-16,72,59,54,63,20,-12,82,31,5,29.96,29.90,23,13,28,0.01
2013-8-17,73,58,53,62,20,-11,83,32,6,29.95,29.83,18,11,20,0.00
2013-8-18,61,55,53,55,-5,-43,82,14,1,29.86,29.77,20,12,23,0.00
2013-8-19,74,58,53,57,8,-44,84,33,1,29.87,29.76,31,22,37,0.00
2013-8-20,57,55,54,-44,-45,-46,1,1,1,29.87,29.79,31,20,36,0.00
2013-8-21,62,56,53,56,-7,-46,81,25,1,29.92,29.83,26,14,30,0.00
2013-8-22,62,56,52,56,18,-46,82,42,1,29.95,29.85,25,15,30,0.00
2013-8-23,61,55,52,55,-8,-47,83,24,1,29.89,29.78,25,12,27,0.00
2013-8-24,63,56,52,58,-4,-46,83,29,1,29.86,29.80,28,15,31,0.00
2013-8-25,65,59,56,59,-21,-44,81,13,1,29.91,29.85,20,10,28,0.01
2013-8-26,68,59,55,60,3,-45,83,37,1,29.98,29.86,18,8,20,0.01
2013-8-27,68,57,53,61,0,-46,83,32,1,29.86,29.79,22,10,24,0.00
2013-8-28,67,59,54,61,-22,-46,81,14,1,29.90,29.82,23,13,27,0.01
2013-8-29,68,61,57,63,-3,-44,83,29,1,30.03,29.91,19,10,22,0.01
2013-8-30,80,68,60,65,56,26,83,69,27,30.01,29.88,17,5,19,0.00
2013-8-31,67,59,54,61,7,-45,83,38,1,29.93,29.85,22,10,25,0.00
2013-9-1,64,57,52,58,-24,-47,83,15,1,29.92,29.85,24,14,27,0.01
2013-9-2,68,61,57,62,-6,-44,83,27,1,29.93,29.84,22,12,29,0.00
2013-9-3,67,60,54,61,19,-45,83,47,1,29.96,29.89,24,11,29,0.00
2013-9-4,71,62,56,62,33,-44,83,53,1,29.99,29.89,20,8,23,0.01
2013-9-5,71,63,56,60,43,-44,82,57,1,29.97,29.91,17,6,25,0.00
2013-9-6,85,71,58,58,52,21,83,55,24,29.95,29.80,12,5,15,0.00
2013-9-7,82,70,53,60,44,-46,84,49,1,29.82,29.75,22,10,23,0.00
2013-9-8,60,55,51,44,-34,-47,63,6,1,29.84,29.75,21,12,22,0.01
2013-9-9,62,55,50,56,-19,-48,82,18,1,29.79,29.68,29,16,31,0.00
2013-9-10,58,57,55,-43,-44,-45,1,1,1,29.87,29.69,30,16,33,0.00
2013-9-11,62,58,56,54,-19,-44,77,17,1,29.97,29.86,13,7,19,0.00
2013-9-12,64,58,55,57,-27,-45,78,12,1,29.95,29.85,22,9,25,0.04
2013-9-13,68,56,53,60,-17,-46,83,22,1,29.87,29.72,22,11,25,0.00
2013-9-14,68,57,52,61,-16,-46,83,22,1,29.79,29.71,16,8,18,0.01
2013-9-15,66,57,52,58,-7,-47,82,30,1,29.82,29.73,22,12,28,0.01
2013-9-16,69,59,54,60,-3,-46,82,31,1,29.86,29.75,20,8,22,0.01
2013-9-17,68,61,54,58,37,-45,82,57,1,29.84,29.77,25,10,34,0.00
2013-9-18,73,64,58,57,51,46,82,64,42,29.87,29.78,20,7,22,0.00
2013-9-19,74,65,51,58,46,-47,80,56,1,29.81,29.70,18,7,21,0.00
2013-9-20,60,56,50,50,-29,-48,81,11,1,29.82,29.72,21,10,25,0.00
2013-9-21,59,57,54,47,-41,-45,71,3,1,29.86,29.77,22,11,26,0.49
2013-9-22,64,58,54,58,49,22,82,72,28,29.96,29.85,20,7,25,0.00
2013-9-23,72,64,57,63,56,50,81,76,65,29.98,29.89,20,5,23,0.00
2013-9-24,68,61,58,58,53,46,81,75,64,29.94,29.84,26,11,41,0.00
2013-9-25,65,58,54,51,46,42,77,64,53,29.89,29.77,22,8,40,0.00
2013-9-26,68,61,53,50,42,36,66,51,36,29.94,29.79,15,6,19,0.00
2013-9-27,72,64,59,50,37,28,64,37,24,30.05,29.94,18,9,21,0.00
2013-9-28,70,62,57,55,46,33,80,56,33,30.04,29.95,20,8,23,0.00
2013-9-29,66,59,52,60,3,-46,80,32,1,30.07,30.01,15,8,18,0.00
2013-9-30,61,59,56,55,-29,-44,82,11,1,30.03,29.93,16,9,19,0.07
2013-10-1,69,60,53,53,50,46,82,71,58,29.97,29.88,12,5,16,0.00
2013-10-2,68,60,51,55,43,-47,81,62,1,29.96,29.88,15,5,19,0.00
2013-10-3,69,59,54,47,33,-100,58,42,24,30.03,29.90,25,-24,38,0.00
2013-10-4,73,62,61,36,20,-100,37,24,16,30.04,29.91,24,-74,37,0.00
2013-10-5,78,63,65,33,15,-100,26,19,15,30.14,30.04,20,-96,24,0.00
2013-10-6,81,62,61,38,20,-100,39,24,16,30.06,29.95,18,-84,20,0.00
2013-10-7,71,60,53,50,25,-100,80,35,20,29.95,29.82,20,-88,21,0.00
2013-10-8,63,49,49,52,16,-100,81,53,1,29.86,29.69,20,-112,21,0.00
2013-10-9,53,52,51,46,44,40,77,74,72,29.73,29.72,4,3,8,0.00
2013-10-10,61,46,48,48,-10,-100,81,33,1,29.97,29.73,27,-90,30,0.00
2013-10-11,53,49,46,47,-19,-50,81,22,1,30.06,29.95,22,13,24,0.00
2013-10-12,58,50,46,50,-16,-50,82,26,1,29.98,29.88,26,11,29,0.02
2013-10-13,65,58,51,53,46,35,81,67,36,30.02,29.89,21,6,24,0.00
2013-10-14,72,63,54,49,42,35,80,48,33,30.07,29.97,16,6,16,0.00
2013-10-15,75,61,58,41,25,-100,52,31,24,29.99,29.92,15,-78,20,0.00
2013-10-16,79,61,61,42,23,-100,44,28,23,30.04,29.95,15,-87,18,0.00
2013-10-17,75,61,52,46,25,-100,80,32,23,30.02,29.92,16,-88,18,0.00
2013-10-18,69,54,50,52,28,-100,82,51,4,30.00,29.93,13,-101,15,0.00
2013-10-19,73,57,49,53,27,-100,80,44,1,30.03,29.96,15,-88,15,0.00
2013-10-20,67,48,46,52,-6,-100,80,33,1,29.97,29.87,19,-86,20,0.00
2013-10-21,50,47,46,-48,-49,-50,1,1,1,29.98,29.90,18,10,19,0.03
2013-10-22,59,48,44,46,-43,-51,68,4,1,29.99,29.91,17,7,20,0.04
2013-10-23,52,47,43,-46,-49,-52,1,1,1,29.94,29.88,23,11,27,0.02
2013-10-24,57,49,45,51,-27,-51,82,17,1,30.07,29.94,18,12,24,0.00
2013-10-25,64,54,47,54,24,-50,81,50,1,30.14,30.06,15,5,17,0.00
2013-10-26,68,57,47,53,27,-50,80,53,1,30.10,29.98,13,6,14,0.00
2013-10-27,52,48,46,42,-20,-50,77,18,1,29.99,29.62,47,20,59,0.07
2013-10-28,57,43,48,50,0,-100,82,47,1,29.80,29.62,24,-150,34,0.00
2013-10-29,57,46,48,50,4,-100,81,48,1,30.02,29.81,14,-88,15,0.00
2013-10-30,61,53,48,52,19,-49,81,50,1,30.12,30.02,12,4,15,0.00
2013-10-31,67,53,51,53,31,-100,80,55,48,30.14,30.03,13,-90,17,0.00
2013-11-1,66,54,52,48,29,-100,78,51,48,30.09,29.97,23,-107,27,0.00
2013-11-2,63,50,48,54,19,-100,80,54,1,29.98,29.86,16,-113,18,0.00
2013-11-3,60,48,49,45,22,-100,75,48,36,30.02,29.88,13,-105,16,0.00
2013-11-4,66,51,48,42,17,-100,74,35,26,30.02,29.88,18,-109,24,0.00
2013-11-5,67,54,56,41,19,-100,53,33,31,30.17,30.01,15,-111,23,0.00
2013-11-6,63,54,54,40,26,-100,57,42,37,30.20,30.11,20,-84,24,0.00
2013-11-7,66,54,55,50,27,-100,82,47,40,30.12,30.02,15,-112,17,0.00
2013-11-8,67,51,48,55,24,-100,84,57,1,30.03,29.91,16,-109,19,0.00
2013-11-9,63,47,47,51,-7,-100,83,35,1,30.00,29.93,26,-104,27,0.00
2013-11-10,58,50,49,52,-18,-100,83,25,1,30.08,29.99,19,-10,22,0.00
2013-11-11,62,54,48,54,5,-49,81,38,1,30.14,30.03,14,6,16,0.00
2013-11-12,66,60,53,54,50,46,81,70,58,30.23,30.12,15,3,17,0.00
2013-11-13,66,50,50,56,15,-100,82,53,1,30.20,30.05,17,-120,19,0.00
2013-11-14,61,53,48,49,-17,-49,81,21,1,30.06,29.83,23,7,28,0.01
2013-11-15,59,53,48,48,38,-49,81,65,1,29.85,29.69,16,7,19,0.00
2013-11-16,59,52,46,51,41,-50,81,71,1,29.88,29.72,15,5,17,0.00
2013-11-17,54,49,45,48,-12,-51,81,27,1,30.05,29.89,16,8,16,0.00
2013-11-18,54,49,46,48,-10,-50,80,25,1,30.12,30.04,11,6,14,0.01
2013-11-19,55,52,49,30,-31,-48,47,9,1,30.07,29.90,19,8,27,0.23
2013-11-20,55,53,48,-45,-46,-49,1,1,1,29.91,29.80,18,8,22,0.42
2013-11-21,56,51,46,45,-1,-50,83,27,1,29.93,29.85,29,11,41,0.04
2013-11-22,65,50,52,27,3,-100,36,20,15,29.97,29.86,38,-134,48,0.21
2013-11-23,60,46,50,46,3,-100,80,33,1,30.06,29.91,23,-128,32,0.00
2013-11-24,60,51,47,46,16,-100,81,47,1,30.21,30.06,9,-6,11,0.01
2013-11-25,55,44,45,46,22,-100,81,62,61,30.28,30.21,17,-138,19,0.00
2013-11-26,54,42,47,44,18,-100,81,59,64,30.22,30.00,19,-158,21,0.00
2013-11-27,56,48,48,46,33,-100,82,67,66,29.99,29.81,19,-62,20,0.00
2013-11-28,62,48,53,46,18,-100,68,47,44,30.03,29.83,13,-163,19,0.00
2013-11-29,63,58,52,52,44,40,80,60,46,30.17,30.03,14,4,15,0.00
2013-11-30,61,56,50,51,46,42,83,69,51,30.22,30.16,11,4,11,0.00
2013-12-1,66,57,51,49,39,-100,83,59,51,30.29,30.18,13,-37,14,0.00
2013-12-2,60,47,47,53,5,-100,83,45,1,30.18,29.92,21,-130,25,0.00
2013-12-3,53,40,44,46,7,-100,82,47,1,29.90,29.81,26,-151,37,0.00
2013-12-4,48,37,40,31,7,-100,69,42,40,30.04,29.90,12,-133,14,0.00
2013-12-5,47,35,37,33,8,-100,79,48,29,30.11,30.03,12,-130,14,0.00
2013-12-6,48,37,38,40,-4,-100,83,47,1,30.15,29.88,29,-128,37,0.00
2013-12-7,45,32,35,37,-2,-100,82,47,1,30.21,29.89,17,-182,25,0.00
2013-12-8,38,31,32,29,6,-100,83,55,49,30.28,30.19,20,-127,25,0.00
2013-12-9,44,33,34,30,5,-100,76,45,32,30.37,30.27,24,-129,25,0.00
2013-12-10,47,36,33,31,10,-100,83,51,39,30.36,30.18,30,-123,34,0.00
2013-12-11,48,37,38,34,10,-100,81,51,47,30.20,30.14,25,-145,29,0.00
2013-12-12,54,40,42,38,14,-100,74,52,45,30.22,30.14,24,-138,26,0.00
2013-12-13,55,42,42,43,10,-100,83,49,1,30.29,30.19,13,-143,10,0.00
2013-12-14,53,43,46,41,18,-100,77,53,49,30.35,30.27,20,-125,26,0.00
2013-12-15,54,43,45,39,20,-100,78,55,50,30.31,30.19,25,-110,26,0.00
2013-12-16,59,46,46,39,14,-100,71,42,40,30.20,30.08,27,-144,33,0.00
2013-12-17,58,46,49,41,18,-100,67,47,43,30.12,29.99,24,-120,26,0.00
2013-12-18,57,43,46,46,2,-100,84,43,1,29.99,29.72,27,-137,32,0.00
2013-12-19,56,42,43,40,13,-100,83,45,27,29.90,29.68,20,-140,23,0.00
2013-12-20,58,45,47,44,11,-100,82,34,23,29.97,29.89,16,-122,16,0.00
2013-12-21,59,46,45,51,26,-100,84,67,54,30.04,29.93,10,-131,13,0.00
2013-12-22,59,47,49,47,21,-100,84,52,50,30.25,30.04,19,-128,21,0.00
2013-12-23,59,46,47,41,20,-100,69,52,51,30.34,30.24,18,-128,22,0.00
2013-12-24,63,50,49,43,24,-100,70,49,43,30.30,30.17,17,-118,18,0.00
2013-12-25,60,47,47,42,20,-100,80,51,43,30.23,30.15,26,-113,30,0.00
2013-12-26,58,48,51,41,20,-100,66,45,40,30.20,30.12,21,-112,23,0.00
2013-12-27,55,45,48,40,19,-100,74,51,45,30.17,30.08,23,-124,26,0.00
2013-12-28,62,47,45,42,11,-100,68,36,28,30.10,30.00,19,-162,23,0.00
2013-12-29,59,47,50,35,10,-100,58,32,26,30.13,30.04,22,-124,29,0.00
2013-12-30,59,42,44,44,0,-100,82,40,1,30.21,30.12,20,-132,21,0.00
2013-12-31,56,45,46,43,19,-100,81,52,43,30.23,30.13,15,-128,15,0.00
2014-1-1,62,48,49,40,16,-100,72,39,30,30.17,30.09,13,-129,15,0.00
2014-1-2,59,48,47,38,17,-100,63,42,41,30.12,30.01,26,-126,29,0.00